Time;durP1;ratioP1;P1;durP2;ratioP2;P2;SDS_P1;SDS_P2;PMS_P1;PMS_P2;Temp;Humidity;BMP_temperature;BMP_pressure;BME280_temperature;BME280_humidity;BME280_pressure;Samples;Min_cycle;Max_cycle;Signal;HPM_P1;HPM_P2
2023/09/29 00:00:31;;;;;;;23.92;11.80;;;512.00;2380.80;;;;;;5073032;28;20020;-72
2023/09/29 00:02:57;;;;;;;18.48;12.13;;;487.30;2380.80;;;;;;5072653;28;20025;-72
2023/09/29 00:05:23;;;;;;;22.25;12.18;;;512.10;2380.80;;;;;;5072787;28;20408;-72
2023/09/29 00:07:52;;;;;;;18.85;12.80;;;487.30;2380.80;;;;;;5072657;28;20092;-73
2023/09/29 00:10:20;;;;;;;21.77;12.05;;;512.00;2380.80;;;;;;5072580;28;20151;-72
2023/09/29 00:12:48;;;;;;;20.38;12.68;;;487.20;2380.80;;;;;;5072633;28;20025;-73
2023/09/29 00:15:15;;;;;;;19.63;12.88;;;486.80;2380.80;;;;;;5072792;28;20021;-72
2023/09/29 00:17:41;;;;;;;20.23;13.10;;;486.70;2380.80;;;;;;5072600;28;20121;-73
2023/09/29 00:20:23;;;;;;;17.90;13.35;;;486.60;2380.80;;;;;;5072699;28;20016;-72
2023/09/29 00:22:56;;;;;;;19.60;12.20;;;486.60;2380.80;;;;;;5060195;28;20040;-72
2023/09/29 00:25:23;;;;;;;17.92;13.30;;;461.70;2380.80;;;;;;5071246;28;20359;-73
2023/09/29 00:27:50;;;;;;;24.00;13.98;;;461.60;2380.80;;;;;;5072624;28;20385;-72
2023/09/29 00:30:16;;;;;;;22.98;13.60;;;461.70;2380.80;;;;;;5072401;28;20066;-72
2023/09/29 00:32:50;;;;;;;24.83;13.65;;;486.40;2380.80;;;;;;5072632;28;20432;-72
2023/09/29 00:35:28;;;;;;;24.67;13.63;;;461.50;2380.80;;;;;;5072358;28;20017;-72
2023/09/29 00:37:55;;;;;;;22.20;12.88;;;461.40;2380.80;;;;;;5072230;28;20044;-72
2023/09/29 00:40:22;;;;;;;29.92;14.38;;;461.40;2380.80;;;;;;5072090;28;20032;-72
2023/09/29 00:42:48;;;;;;;21.48;13.32;;;461.20;2380.80;;;;;;5072604;28;20037;-72
2023/09/29 00:45:16;;;;;;;23.27;14.40;;;461.40;2380.80;;;;;;5072435;28;20020;-72
2023/09/29 00:47:44;;;;;;;16.48;12.82;;;461.60;2380.80;;;;;;5072588;28;20034;-72
2023/09/29 00:50:12;;;;;;;22.52;13.57;;;461.60;2380.80;;;;;;5072301;28;20492;-72
2023/09/29 00:52:39;;;;;;;18.42;12.85;;;461.70;2380.80;;;;;;5073019;28;20031;-72
2023/09/29 00:55:12;;;;;;;22.45;13.73;;;461.70;2380.80;;;;;;5076187;28;20016;-72
2023/09/29 00:57:47;;;;;;;21.73;15.15;;;461.70;2380.80;;;;;;5077577;28;20035;-72
2023/09/29 01:00:29;;;;;;;27.83;14.32;;;461.70;2380.80;;;;;;5070406;28;20017;-73
2023/09/29 01:03:14;;;;;;;23.13;14.75;;;461.50;2380.80;;;;;;5078914;28;20363;-73
2023/09/29 01:05:47;;;;;;;23.83;15.02;;;461.50;2380.80;;;;;;5075894;28;20025;-73
2023/09/29 01:08:21;;;;;;;22.63;14.88;;;461.50;2380.80;;;;;;5075497;28;20013;-72
2023/09/29 01:10:48;;;;;;;21.75;13.95;;;461.50;2380.80;;;;;;5075846;28;20032;-72
2023/09/29 01:13:15;;;;;;;23.55;14.13;;;461.40;2380.80;;;;;;5075815;28;20008;-72
2023/09/29 01:15:41;;;;;;;20.70;14.40;;;461.50;2380.80;;;;;;5075450;28;20028;-72
2023/09/29 01:18:09;;;;;;;21.75;15.00;;;461.50;2380.80;;;;;;5075672;28;20377;-71
2023/09/29 01:20:37;;;;;;;30.27;14.70;;;461.60;2380.80;;;;;;5075442;28;20021;-72
2023/09/29 01:23:05;;;;;;;26.20;13.88;;;461.50;2380.80;;;;;;5075505;28;20022;-72
2023/09/29 01:25:30;;;;;;;23.92;14.55;;;461.50;2380.80;;;;;;5075418;28;20024;-72
2023/09/29 01:27:57;;;;;;;20.52;14.45;;;461.20;2380.80;;;;;;5075450;28;20085;-72
2023/09/29 01:30:24;;;;;;;27.00;15.52;;;461.40;2380.80;;;;;;5075271;28;20037;-72
2023/09/29 01:32:52;;;;;;;25.73;15.52;;;461.20;2380.80;;;;;;5075345;28;20027;-72
2023/09/29 01:35:23;;;;;;;22.85;15.00;;;461.20;2380.80;;;;;;5075350;28;20017;-72
2023/09/29 01:37:50;;;;;;;22.20;13.60;;;461.20;2380.80;;;;;;5075149;28;20025;-72
2023/09/29 01:40:18;;;;;;;28.38;14.68;;;461.20;2380.80;;;;;;5074892;28;20047;-72
2023/09/29 01:42:44;;;;;;;24.17;14.27;;;461.30;2380.80;;;;;;5075139;28;20028;-72
2023/09/29 01:45:14;;;;;;;23.05;14.93;;;461.40;2380.80;;;;;;5075053;28;20107;-73
2023/09/29 01:47:42;;;;;;;22.38;14.52;;;461.40;2380.80;;;;;;5075141;28;20574;-72
2023/09/29 01:50:10;;;;;;;19.80;13.63;;;461.30;2380.80;;;;;;5075018;28;20358;-73
2023/09/29 01:52:36;;;;;;;20.55;14.15;;;461.20;2380.80;;;;;;5075067;28;20024;-73
2023/09/29 01:55:06;;;;;;;17.88;13.25;;;461.20;2380.80;;;;;;5074791;28;20067;-72
2023/09/29 01:57:32;;;;;;;21.02;14.75;;;461.30;2380.80;;;;;;5074845;28;20153;-73
2023/09/29 01:59:57;;;;;;;27.98;14.27;;;461.10;2380.80;;;;;;5074820;28;20465;-72
2023/09/29 02:02:23;;;;;;;20.23;13.05;;;461.10;2380.80;;;;;;5074812;28;20069;-72
2023/09/29 02:04:49;;;;;;;19.50;13.77;;;461.20;2380.80;;;;;;5074050;28;20021;-72
2023/09/29 02:07:14;;;;;;;20.02;15.48;;;461.20;2380.80;;;;;;5074718;28;20469;-73
2023/09/29 02:09:42;;;;;;;22.73;15.73;;;461.40;2380.80;;;;;;5074395;28;20060;-72
2023/09/29 02:12:09;;;;;;;25.65;14.50;;;461.40;2380.80;;;;;;5073504;28;20043;-72
2023/09/29 02:14:35;;;;;;;23.98;14.60;;;461.30;2380.80;;;;;;5074718;28;20027;-73
2023/09/29 02:17:01;;;;;;;21.67;14.20;;;461.20;2380.80;;;;;;5074486;28;20037;-73
2023/09/29 02:19:27;;;;;;;22.13;14.63;;;461.20;2380.80;;;;;;5074374;28;20592;-73
2023/09/29 02:21:53;;;;;;;23.33;14.07;;;461.20;2380.80;;;;;;5074622;28;20051;-72
2023/09/29 02:24:19;;;;;;;23.48;14.32;;;461.20;2380.80;;;;;;5061029;28;20025;-73
2023/09/29 02:26:45;;;;;;;24.30;15.10;;;461.20;2380.80;;;;;;5074391;28;20013;-72
2023/09/29 02:29:11;;;;;;;26.92;14.80;;;461.20;2380.80;;;;;;5073952;28;20039;-73
2023/09/29 02:31:36;;;;;;;23.25;16.33;;;461.20;2380.80;;;;;;5074394;28;20531;-73
2023/09/29 02:34:06;;;;;;;25.40;15.68;;;461.10;2380.80;;;;;;5074176;28;20028;-72
2023/09/29 02:36:34;;;;;;;24.00;14.98;;;461.20;2380.80;;;;;;5074195;28;20465;-73
2023/09/29 02:39:03;;;;;;;20.42;14.70;;;461.30;2380.80;;;;;;5060987;28;20032;-72
2023/09/29 02:41:30;;;;;;;22.15;14.63;;;461.20;2380.80;;;;;;5072707;28;20045;-73
2023/09/29 02:43:56;;;;;;;24.67;15.60;;;461.20;2380.80;;;;;;5073888;28;20378;-72
2023/09/29 02:46:21;;;;;;;24.83;15.00;;;461.00;2380.80;;;;;;5073691;28;20020;-72
2023/09/29 02:48:48;;;;;;;20.13;13.77;;;460.90;2380.80;;;;;;5074161;28;20020;-73
2023/09/29 02:51:16;;;;;;;24.48;15.93;;;460.80;2380.80;;;;;;5073808;28;20020;-74
2023/09/29 02:53:42;;;;;;;20.25;15.02;;;436.10;2355.20;;;;;;5073923;28;20021;-72
2023/09/29 02:56:11;;;;;;;25.08;14.10;;;436.10;2355.20;;;;;;5073615;28;20017;-73
2023/09/29 02:58:38;;;;;;;18.88;13.95;;;435.90;2355.20;;;;;;5073582;28;20029;-72
2023/09/29 03:01:18;;;;;;;29.60;15.85;;;435.70;2355.20;;;;;;5073384;28;20048;-73
2023/09/29 03:03:45;;;;;;;26.88;15.00;;;435.60;2355.20;;;;;;5073763;28;20024;-72
2023/09/29 03:06:18;;;;;;;25.48;14.90;;;435.40;2355.20;;;;;;5073430;28;20404;-73
2023/09/29 03:08:44;;;;;;;26.05;14.40;;;435.30;2355.20;;;;;;5073333;28;20020;-73
2023/09/29 03:11:12;;;;;;;22.10;13.68;;;435.20;2355.20;;;;;;5073299;28;20024;-73
2023/09/29 03:13:39;;;;;;;21.42;13.90;;;410.50;2355.20;;;;;;5073410;28;20024;-73
2023/09/29 03:16:07;;;;;;;26.02;14.45;;;435.20;2355.20;;;;;;5071975;28;20078;-71
2023/09/29 03:18:35;;;;;;;24.25;14.20;;;435.30;2355.20;;;;;;5073600;28;20028;-72
2023/09/29 03:21:01;;;;;;;22.30;14.40;;;435.30;2355.20;;;;;;5073257;28;20013;-71
2023/09/29 03:23:28;;;;;;;25.40;13.98;;;435.20;2355.20;;;;;;5073320;28;20032;-73
2023/09/29 03:25:54;;;;;;;23.73;13.13;;;435.40;2355.20;;;;;;5073054;28;20020;-71
2023/09/29 03:28:21;;;;;;;23.05;13.23;;;435.50;2355.20;;;;;;5073099;28;20070;-72
2023/09/29 03:30:46;;;;;;;22.02;14.48;;;435.60;2355.20;;;;;;5073064;28;20025;-72
2023/09/29 03:33:13;;;;;;;31.20;14.18;;;435.40;2355.20;;;;;;5073410;28;20100;-72
2023/09/29 03:35:40;;;;;;;22.30;13.98;;;435.30;2355.20;;;;;;5072967;28;20480;-72
2023/09/29 03:38:06;;;;;;;23.33;13.75;;;410.50;2355.20;;;;;;5073153;28;20040;-73
2023/09/29 03:40:32;;;;;;;24.00;13.02;;;410.30;2355.20;;;;;;5071684;28;20044;-72
2023/09/29 03:42:58;;;;;;;21.80;13.25;;;410.30;2355.20;;;;;;5072992;28;20081;-72
2023/09/29 03:45:25;;;;;;;23.65;14.07;;;410.50;2355.20;;;;;;5072973;28;20492;-72
2023/09/29 03:47:51;;;;;;;20.73;14.18;;;410.40;2355.20;;;;;;5073137;28;20025;-72
2023/09/29 03:50:17;;;;;;;21.52;13.77;;;410.20;2355.20;;;;;;5072924;28;20021;-72
2023/09/29 03:52:45;;;;;;;20.10;12.80;;;410.30;2355.20;;;;;;5073049;28;20123;-73
2023/09/29 03:55:14;;;;;;;28.80;15.02;;;410.30;2355.20;;;;;;5072550;28;20142;-72
2023/09/29 03:57:41;;;;;;;25.00;14.65;;;410.20;2355.20;;;;;;5072715;28;20047;-72
2023/09/29 04:00:11;;;;;;;17.95;14.15;;;410.20;2355.20;;;;;;5072779;28;20462;-73
2023/09/29 04:02:36;;;;;;;23.15;14.35;;;410.20;2355.20;;;;;;5072585;28;20025;-72
2023/09/29 04:05:02;;;;;;;26.73;13.93;;;410.20;2355.20;;;;;;5072832;28;20035;-72
2023/09/29 04:07:28;;;;;;;21.33;14.25;;;410.20;2355.20;;;;;;5072729;28;20035;-73
2023/09/29 04:09:53;;;;;;;23.38;15.35;;;410.20;2355.20;;;;;;5072672;28;20367;-72
2023/09/29 04:12:19;;;;;;;20.58;14.10;;;410.50;2355.20;;;;;;5072619;28;20103;-72
2023/09/29 04:14:45;;;;;;;21.38;14.60;;;410.50;2355.20;;;;;;5072887;28;20024;-72
2023/09/29 04:17:10;;;;;;;17.85;13.43;;;410.50;2355.20;;;;;;5072574;28;20082;-72
2023/09/29 04:19:38;;;;;;;24.38;14.52;;;435.20;2355.20;;;;;;5072763;28;20378;-71
2023/09/29 04:22:04;;;;;;;18.95;13.75;;;435.20;2355.20;;;;;;5072653;28;20051;-72
2023/09/29 04:24:30;;;;;;;24.58;14.32;;;435.30;2355.20;;;;;;5072504;28;20032;-72
2023/09/29 04:26:56;;;;;;;21.48;14.20;;;435.50;2355.20;;;;;;5072477;28;20024;-72
2023/09/29 04:29:22;;;;;;;19.58;13.20;;;435.40;2355.20;;;;;;5076317;28;20016;-72
2023/09/29 04:31:47;;;;;;;24.38;14.23;;;435.30;2355.20;;;;;;5077280;28;20029;-73
2023/09/29 04:34:13;;;;;;;22.58;14.15;;;410.50;2355.20;;;;;;5077653;28;20045;-73
2023/09/29 04:36:40;;;;;;;22.58;15.23;;;410.30;2355.20;;;;;;5076450;28;20373;-73
2023/09/29 04:39:06;;;;;;;23.48;15.35;;;410.30;2355.20;;;;;;5076274;28;20025;-72
2023/09/29 04:41:32;;;;;;;30.73;15.45;;;410.20;2355.20;;;;;;5075947;28;20053;-74
2023/09/29 04:43:59;;;;;;;21.60;14.75;;;410.20;2355.20;;;;;;5076343;28;20028;-72
2023/09/29 04:46:25;;;;;;;23.13;14.07;;;410.30;2355.20;;;;;;5076451;28;20103;-72
2023/09/29 04:48:53;;;;;;;22.42;14.05;;;410.50;2355.20;;;;;;5076070;28;20167;-72
2023/09/29 04:51:20;;;;;;;21.52;13.30;;;410.50;2355.20;;;;;;5076096;28;20016;-72
2023/09/29 04:53:45;;;;;;;24.08;13.63;;;435.20;2355.20;;;;;;5076110;28;20038;-73
2023/09/29 04:56:11;;;;;;;37.22;14.88;;;435.30;2355.20;;;;;;5072430;28;20044;-72
2023/09/29 04:58:37;;;;;;;23.83;14.98;;;435.30;2355.20;;;;;;5069774;28;20047;-72
2023/09/29 05:01:03;;;;;;;21.88;14.82;;;435.20;2355.20;;;;;;5080686;28;20025;-71
2023/09/29 05:03:28;;;;;;;20.70;14.35;;;435.20;2355.20;;;;;;5077279;28;20063;-72
2023/09/29 05:05:54;;;;;;;39.45;20.27;;;410.50;2355.20;;;;;;5078392;28;20031;-73
2023/09/29 05:08:20;;;;;;;30.33;17.35;;;410.40;2355.20;;;;;;5078502;28;20028;-74
2023/09/29 05:10:46;;;;;;;29.27;16.38;;;410.50;2355.20;;;;;;5069092;28;20025;-73
2023/09/29 05:13:11;;;;;;;29.42;17.45;;;435.20;2355.20;;;;;;5076500;28;20118;-73
2023/09/29 05:15:37;;;;;;;30.17;16.20;;;410.50;2355.20;;;;;;5078451;28;20075;-73
2023/09/29 05:18:03;;;;;;;30.70;15.52;;;435.30;2355.20;;;;;;5075505;28;20039;-73
2023/09/29 05:20:29;;;;;;;24.45;15.02;;;435.30;2355.20;;;;;;5076016;28;20025;-73
2023/09/29 05:22:55;;;;;;;25.23;15.20;;;435.30;2355.20;;;;;;5070026;28;20032;-73
2023/09/29 05:25:21;;;;;;;24.13;14.38;;;435.30;2355.20;;;;;;5080929;28;20020;-72
2023/09/29 05:27:46;;;;;;;23.17;14.07;;;410.50;2355.20;;;;;;5074274;28;20025;-73
2023/09/29 05:30:12;;;;;;;25.52;14.95;;;435.20;2355.20;;;;;;5083825;28;20073;-73
2023/09/29 05:32:38;;;;;;;24.95;15.05;;;435.30;2355.20;;;;;;5083809;28;20099;-75
2023/09/29 05:35:04;;;;;;;25.63;14.32;;;435.20;2355.20;;;;;;5072746;28;20024;-77
2023/09/29 05:37:30;;;;;;;21.02;14.23;;;435.30;2355.20;;;;;;5071530;28;20041;-74
2023/09/29 05:39:57;;;;;;;25.88;15.27;;;435.30;2355.20;;;;;;5083207;28;20040;-73
2023/09/29 05:42:23;;;;;;;27.58;15.07;;;435.40;2355.20;;;;;;5066966;28;20481;-75
2023/09/29 05:44:49;;;;;;;24.77;13.95;;;435.50;2355.20;;;;;;5067265;28;20022;-75
2023/09/29 05:47:16;;;;;;;22.25;15.88;;;435.60;2355.20;;;;;;5072751;28;20031;-74
2023/09/29 05:49:42;;;;;;;24.05;14.88;;;435.80;2355.20;;;;;;5068980;28;20025;-75
2023/09/29 05:52:08;;;;;;;29.05;15.05;;;435.90;2355.20;;;;;;5064334;28;20029;-75
2023/09/29 05:54:34;;;;;;;23.75;15.07;;;436.00;2355.20;;;;;;5077862;28;20020;-76
2023/09/29 05:56:59;;;;;;;25.13;13.63;;;460.80;2380.80;;;;;;5081677;28;20539;-75
2023/09/29 05:59:25;;;;;;;25.75;15.68;;;460.80;2380.80;;;;;;5076880;28;20016;-76
2023/09/29 06:01:51;;;;;;;22.15;16.42;;;460.90;2380.80;;;;;;5072993;28;20063;-76
2023/09/29 06:04:16;;;;;;;26.27;14.77;;;460.90;2380.80;;;;;;5078306;28;20020;-75
2023/09/29 06:06:43;;;;;;;25.25;15.07;;;461.00;2380.80;;;;;;5066229;28;20482;-76
2023/09/29 06:09:09;;;;;;;25.25;15.55;;;461.10;2380.80;;;;;;5077316;28;20427;-77
2023/09/29 06:11:34;;;;;;;24.30;16.42;;;461.10;2380.80;;;;;;5068818;28;20029;-78
2023/09/29 06:14:00;;;;;;;26.23;17.90;;;461.10;2380.80;;;;;;5071572;28;20403;-78
2023/09/29 06:16:26;;;;;;;30.88;17.35;;;461.20;2380.80;;;;;;5071900;28;20481;-77
2023/09/29 06:18:51;;;;;;;30.67;17.83;;;461.20;2380.80;;;;;;5069291;28;20039;-78
2023/09/29 06:21:17;;;;;;;28.65;16.10;;;461.50;2380.80;;;;;;5077880;28;20099;-77
2023/09/29 06:23:43;;;;;;;25.10;16.52;;;461.70;2380.80;;;;;;5070392;28;20452;-77
2023/09/29 06:26:09;;;;;;;24.55;15.65;;;461.70;2380.80;;;;;;5067288;28;20497;-78
2023/09/29 06:28:35;;;;;;;25.40;15.82;;;486.40;2380.80;;;;;;5069401;28;20099;-78
2023/09/29 06:31:00;;;;;;;27.92;16.48;;;486.60;2380.80;;;;;;5064288;28;20021;-77
2023/09/29 06:33:26;;;;;;;25.70;17.20;;;486.80;2380.80;;;;;;5070663;28;20037;-76
2023/09/29 06:35:52;;;;;;;23.23;15.10;;;486.90;2380.80;;;;;;5072041;28;20385;-75
2023/09/29 06:38:18;;;;;;;24.15;15.70;;;486.90;2380.80;;;;;;5061338;28;20036;-77
2023/09/29 06:40:44;;;;;;;32.00;16.70;;;487.20;2380.80;;;;;;5081591;28;20049;-78
2023/09/29 06:43:10;;;;;;;50.88;20.88;;;512.10;2380.80;;;;;;5060254;28;20060;-76
2023/09/29 06:45:36;;;;;;;54.25;18.90;;;512.70;2380.80;;;;;;5060566;28;20013;-79
2023/09/29 06:48:06;;;;;;;26.85;15.13;;;537.80;2406.40;;;;;;5056584;28;20116;-76
2023/09/29 06:50:32;;;;;;;20.42;13.73;;;538.10;2406.40;;;;;;5073484;28;20028;-79
2023/09/29 06:52:57;;;;;;;20.17;13.48;;;538.00;2406.40;;;;;;5063603;28;20029;-76
2023/09/29 06:55:23;;;;;;;21.13;14.23;;;538.20;2406.40;;;;;;5072069;28;20078;-78
2023/09/29 06:57:49;;;;;;;18.15;13.65;;;537.90;2406.40;;;;;;5070450;28;20037;-76
2023/09/29 07:00:15;;;;;;;17.58;13.10;;;537.90;2406.40;;;;;;5070298;28;20028;-77
2023/09/29 07:02:41;;;;;;;19.60;14.05;;;538.00;2406.40;;;;;;5073949;28;20043;-77
2023/09/29 07:05:07;;;;;;;20.08;12.73;;;538.10;2406.40;;;;;;5068197;28;20090;-77
2023/09/29 07:07:33;;;;;;;21.52;12.43;;;538.20;2406.40;;;;;;5072926;28;20103;-77
2023/09/29 07:09:59;;;;;;;23.40;12.68;;;538.50;2406.40;;;;;;5084424;28;20020;-77
2023/09/29 07:12:25;;;;;;;22.55;13.10;;;563.70;2432.00;;;;;;5069193;28;20036;-77
2023/09/29 07:14:51;;;;;;;22.17;13.00;;;563.70;2432.00;;;;;;5074172;28;20065;-77
2023/09/29 07:17:17;;;;;;;18.77;12.15;;;564.10;2432.00;;;;;;5066282;28;20040;-77
2023/09/29 07:19:43;;;;;;;21.13;12.50;;;588.90;2432.00;;;;;;5062969;28;20106;-76
2023/09/29 07:22:09;;;;;;;17.08;13.18;;;589.20;2432.00;;;;;;5061860;28;20029;-76
2023/09/29 07:24:35;;;;;;;20.38;13.27;;;589.30;2432.00;;;;;;5074935;28;20027;-76
2023/09/29 07:27:01;;;;;;;23.30;14.88;;;589.50;2432.00;;;;;;5071355;28;20028;-77
2023/09/29 07:29:26;;;;;;;23.45;13.52;;;589.60;2432.00;;;;;;5068117;28;20482;-77
2023/09/29 07:31:52;;;;;;;21.90;12.02;;;614.40;2432.00;;;;;;5068301;28;20028;-76
2023/09/29 07:34:18;;;;;;;16.42;11.20;;;614.40;2432.00;;;;;;5083680;28;20111;-77
2023/09/29 07:36:45;;;;;;;19.27;12.57;;;614.70;2432.00;;;;;;5071750;28;20075;-77
2023/09/29 07:39:15;;;;;;;18.45;11.55;;;614.70;2432.00;;;;;;5076595;28;20021;-76
2023/09/29 07:41:41;;;;;;;17.52;11.43;;;614.60;2432.00;;;;;;5079339;28;20033;-77
2023/09/29 07:44:08;;;;;;;15.32;11.43;;;614.80;2432.00;;;;;;5070822;28;20024;-76
2023/09/29 07:46:35;;;;;;;16.02;11.30;;;614.90;2432.00;;;;;;5061118;28;20031;-77
2023/09/29 07:49:02;;;;;;;15.80;11.32;;;615.00;2432.00;;;;;;5077905;28;20019;-77
2023/09/29 07:51:29;;;;;;;20.00;12.48;;;615.00;2432.00;;;;;;5071104;28;20021;-76
2023/09/29 07:53:55;;;;;;;25.30;12.70;;;615.00;2432.00;;;;;;5071026;28;20027;-77
2023/09/29 07:56:21;;;;;;;17.40;11.57;;;615.10;2432.00;;;;;;5083901;28;20392;-77
2023/09/29 07:58:47;;;;;;;25.67;11.95;;;615.20;2380.80;;;;;;5068710;28;20037;-76
2023/09/29 08:01:13;;;;;;;19.33;11.60;;;640.00;2355.20;;;;;;5083280;28;20454;-76
2023/09/29 08:03:38;;;;;;;17.42;12.25;;;640.20;2329.60;;;;;;5084993;28;20028;-76
2023/09/29 08:06:04;;;;;;;18.15;11.68;;;640.40;2304.00;;;;;;5088491;28;20465;-76
2023/09/29 08:08:30;;;;;;;23.35;13.35;;;640.10;2355.20;;;;;;5087935;28;20029;-76
2023/09/29 08:10:56;;;;;;;16.42;12.48;;;640.20;2355.20;;;;;;5067334;28;20425;-76
2023/09/29 08:13:23;;;;;;;18.48;11.85;;;640.60;2329.60;;;;;;5079320;28;20029;-76
2023/09/29 08:15:49;;;;;;;20.08;14.57;;;640.70;2278.40;;;;;;5076829;28;20052;-77
2023/09/29 08:18:17;;;;;;;17.33;13.32;;;640.70;2304.00;;;;;;5072548;28;20083;-77
2023/09/29 08:20:43;;;;;;;19.75;12.93;;;665.60;2329.60;;;;;;5068293;28;20025;-77
2023/09/29 08:23:09;;;;;;;19.73;11.57;;;640.80;2355.20;;;;;;5068284;28;20436;-75
2023/09/29 08:25:35;;;;;;;16.80;10.57;;;640.90;2252.80;;;;;;5080413;28;20092;-76
2023/09/29 08:28:04;;;;;;;17.35;10.02;;;665.80;2227.20;;;;;;5068497;28;20024;-75
2023/09/29 08:30:30;;;;;;;15.18;9.95;;;;;;;;;;5066662;28;20107;-75
2023/09/29 08:32:56;;;;;;;19.98;10.65;;;666.30;2150.40;;;;;;5063995;28;20100;-75
2023/09/29 08:35:22;;;;;;;19.58;10.45;;;666.50;2099.20;;;;;;5069539;28;20380;-75
2023/09/29 08:37:49;;;;;;;16.73;10.25;;;666.40;2048.00;;;;;;5061978;28;20041;-75
2023/09/29 08:40:17;;;;;;;14.80;10.18;;;666.50;2048.00;;;;;;5080742;28;20501;-75
2023/09/29 08:42:49;;;;;;;20.00;10.35;;;666.50;2099.20;;;;;;5088397;28;20398;-75
2023/09/29 08:45:17;;;;;;;16.00;9.65;;;666.50;2099.20;;;;;;5080527;28;20028;-77
2023/09/29 08:47:52;;;;;;;16.20;9.20;;;691.30;2022.40;;;;;;5068786;28;20020;-76
2023/09/29 08:50:21;;;;;;;18.70;9.43;;;691.20;1996.80;;;;;;5074262;28;20485;-76
2023/09/29 08:52:49;;;;;;;14.68;8.93;;;691.70;1996.80;;;;;;5076103;28;20032;-75
2023/09/29 08:55:16;;;;;;;12.95;8.90;;;691.70;1945.60;;;;;;5072405;28;20029;-75
2023/09/29 08:57:43;;;;;;;16.75;8.80;;;692.00;1945.60;;;;;;5068967;28;20032;-75
2023/09/29 09:00:12;;;;;;;14.50;8.07;;;692.10;1920.00;;;;;;5066522;28;20381;-75
2023/09/29 09:02:41;;;;;;;17.08;8.05;;;716.90;1920.00;;;;;;5071431;28;20481;-75
2023/09/29 09:05:10;;;;;;;15.45;8.43;;;717.20;1894.40;;;;;;5073974;28;20488;-76
2023/09/29 09:07:37;;;;;;;12.68;7.78;;;716.90;1894.40;;;;;;5080602;28;20078;-75
2023/09/29 09:10:03;;;;;;;14.45;8.25;;;717.50;1868.80;;;;;;5067899;28;20057;-74
2023/09/29 09:12:33;;;;;;;10.98;6.80;;;;;;;;;;5071898;28;20030;-74
2023/09/29 09:14:59;;;;;;;16.75;8.27;;;742.40;1817.60;;;;;;5081972;28;20115;-74
2023/09/29 09:17:25;;;;;;;12.80;8.20;;;742.50;1817.60;;;;;;5077397;28;20040;-76
2023/09/29 09:19:51;;;;;;;12.75;8.27;;;742.50;1843.20;;;;;;5084417;28;20478;-75
2023/09/29 09:22:21;;;;;;;19.95;9.02;;;742.60;1817.60;;;;;;5065321;28;20095;-76
2023/09/29 09:24:48;;;;;;;18.73;7.53;;;742.50;1766.40;;;;;;5068033;28;20021;-78
2023/09/29 09:27:14;;;;;;;16.40;7.78;;;742.90;1766.40;;;;;;5067240;28;20013;-76
2023/09/29 09:29:44;;;;;;;25.85;8.23;;;743.10;1715.20;;;;;;5063384;28;20027;-75
2023/09/29 09:32:10;;;;;;;13.82;7.82;;;743.30;1715.20;;;;;;5068405;28;20058;-75
2023/09/29 09:34:37;;;;;;;13.63;7.25;;;768.00;1689.60;;;;;;5066913;28;20031;-76
2023/09/29 09:37:06;;;;;;;17.35;8.02;;;768.10;1664.00;;;;;;5078350;28;20040;-76
2023/09/29 09:39:33;;;;;;;17.45;8.40;;;768.40;1689.60;;;;;;5073670;28;20103;-77
2023/09/29 09:42:03;;;;;;;14.85;7.00;;;768.40;1689.60;;;;;;5074790;28;20020;-76
2023/09/29 09:44:28;;;;;;;14.93;8.27;;;768.50;1638.40;;;;;;5062206;28;20028;-75
2023/09/29 09:47:00;;;;;;;15.30;7.60;;;768.40;1612.80;;;;;;5064712;28;20016;-74
2023/09/29 09:49:36;;;;;;;13.57;7.60;;;768.60;1638.40;;;;;;5065077;28;20481;-74
2023/09/29 09:52:12;;;;;;;16.13;8.18;;;768.60;1587.20;;;;;;5079651;28;20024;-74
2023/09/29 09:54:53;;;;;;;17.67;7.60;;;768.50;1612.80;;;;;;5087008;28;20031;-74
2023/09/29 09:57:25;;;;;;;14.70;7.63;;;768.70;1587.20;;;;;;5073592;28;20072;-74
2023/09/29 09:59:54;;;;;;;11.77;6.82;;;;;;;;;;5075310;28;20016;-74
2023/09/29 10:02:21;;;;;;;11.55;6.63;;;768.90;1510.40;;;;;;5069634;28;20021;-74
2023/09/29 10:04:48;;;;;;;20.45;7.82;;;768.60;1536.00;;;;;;5063345;28;20339;-74
2023/09/29 10:07:14;;;;;;;14.45;6.47;;;768.30;1587.20;;;;;;5075893;28;20051;-75
2023/09/29 10:09:45;;;;;;;16.23;7.40;;;768.40;1536.00;;;;;;5084494;28;20024;-75
2023/09/29 10:12:28;;;;;;;13.85;5.63;;;768.40;1510.40;;;;;;5067639;28;20036;-74
2023/09/29 10:14:58;;;;;;;16.58;6.30;;;768.80;1510.40;;;;;;5063332;28;20063;-76
2023/09/29 10:17:25;;;;;;;16.00;6.03;;;768.90;1510.40;;;;;;5075636;28;20081;-74
2023/09/29 10:19:51;;;;;;;16.20;6.03;;;793.90;1510.40;;;;;;5073641;28;20027;-76
2023/09/29 10:22:28;;;;;;;13.57;6.40;;;794.00;1484.80;;;;;;5071063;28;20016;-76
2023/09/29 10:24:59;;;;;;;13.82;6.28;;;794.10;1484.80;;;;;;5084606;28;20366;-76
2023/09/29 10:27:31;;;;;;;10.25;6.15;;;794.20;1433.60;;;;;;5067550;28;20049;-77
2023/09/29 10:30:25;;;;;;;13.40;7.30;;;794.50;1459.20;;;;;;5072974;28;20024;-77
2023/09/29 10:33:05;;;;;;;17.75;7.20;;;794.20;1382.40;;;;;;5066749;28;20547;-76
2023/09/29 10:35:33;;;;;;;12.25;6.47;;;794.50;1408.00;;;;;;5076418;28;20025;-77
2023/09/29 10:38:12;;;;;;;14.38;5.82;;;819.30;1382.40;;;;;;5068110;28;20437;-77
2023/09/29 10:40:38;;;;;;;11.82;4.97;;;;;;;;;;5075033;28;20044;-77
2023/09/29 10:43:05;;;;;;;10.82;5.40;;;819.60;1280.00;;;;;;5065621;28;20028;-77
2023/09/29 10:45:40;;;;;;;15.10;5.00;;;819.70;1305.60;;;;;;5074037;28;20157;-76
2023/09/29 10:48:08;;;;;;;15.95;5.55;;;819.90;1280.00;;;;;;5069566;28;20044;-76
2023/09/29 10:50:44;;;;;;;11.43;5.22;;;820.00;1280.00;;;;;;5069986;28;20028;-76
2023/09/29 10:53:11;;;;;;;8.55;4.47;;;820.00;1254.40;;;;;;5069559;28;20107;-76
2023/09/29 10:55:47;;;;;;;7.72;3.78;;;819.90;1203.20;;;;;;5077437;28;20483;-77
2023/09/29 10:58:13;;;;;;;8.82;4.78;;;820.10;1152.00;;;;;;5071258;28;20115;-75
2023/09/29 11:00:46;;;;;;;7.95;5.15;;;844.80;1203.20;;;;;;5075864;28;20458;-74
2023/09/29 11:03:17;;;;;;;15.38;5.00;;;844.90;1177.60;;;;;;5068821;28;20031;-74
2023/09/29 11:05:55;;;;;;;8.48;4.32;;;820.10;1177.60;;;;;;5075417;28;20077;-75
2023/09/29 11:08:29;;;;;;;6.57;4.25;;;820.10;1152.00;;;;;;5067674;28;20043;-75
2023/09/29 11:11:00;;;;;;;8.73;3.88;;;820.10;1100.80;;;;;;5067617;28;20505;-74
2023/09/29 11:13:27;;;;;;;15.30;4.78;;;819.50;1126.40;;;;;;5060417;28;20040;-74
2023/09/29 11:15:53;;;;;;;11.32;4.82;;;819.30;1075.20;;;;;;5068659;28;20496;-74
2023/09/29 11:18:25;;;;;;;10.00;3.67;;;819.50;1100.80;;;;;;5074444;28;20036;-74
2023/09/29 11:20:54;;;;;;;14.35;4.32;;;819.60;1049.60;;;;;;5062878;28;20117;-74
2023/09/29 11:23:20;;;;;;;11.85;4.38;;;819.80;1049.60;;;;;;5060166;28;20104;-75
2023/09/29 11:25:49;;;;;;;12.95;4.30;;;819.80;1049.60;;;;;;5083174;28;20056;-74
2023/09/29 11:28:15;;;;;;;11.02;5.10;;;820.10;1075.20;;;;;;5074961;28;20024;-74
2023/09/29 11:30:42;;;;;;;12.40;4.65;;;820.00;1024.00;;;;;;5066828;28;20013;-75
2023/09/29 11:33:12;;;;;;;8.43;3.85;;;820.00;1024.00;;;;;;5075862;28;20055;-75
2023/09/29 11:35:41;;;;;;;8.52;3.88;;;819.80;1049.60;;;;;;5088974;28;20028;-75
2023/09/29 11:38:08;;;;;;;10.25;3.58;;;820.00;1024.00;;;;;;5074331;28;20024;-75
2023/09/29 11:40:33;;;;;;;8.95;4.07;;;820.00;1075.20;;;;;;5086086;28;20052;-75
2023/09/29 11:42:59;;;;;;;9.90;4.57;;;820.10;1049.60;;;;;;5062457;28;20381;-76
2023/09/29 11:45:25;;;;;;;11.40;3.95;;;844.90;1100.80;;;;;;5073336;28;20116;-75
2023/09/29 11:47:51;;;;;;;11.00;4.10;;;845.00;1075.20;;;;;;5072421;28;20054;-74
2023/09/29 11:50:18;;;;;;;15.27;4.63;;;845.10;1075.20;;;;;;5068209;28;20028;-75
2023/09/29 11:52:43;;;;;;;12.05;4.00;;;845.10;1049.60;;;;;;5066489;28;20031;-74
2023/09/29 11:55:14;;;;;;;15.95;4.30;;;844.90;1049.60;;;;;;5078165;28;20024;-75
2023/09/29 11:57:43;;;;;;;7.80;3.60;;;845.20;1024.00;;;;;;5064913;28;20047;-75
2023/09/29 12:00:13;;;;;;;9.02;3.70;;;845.10;1024.00;;;;;;5066323;28;20077;-75
2023/09/29 12:02:40;;;;;;;11.10;3.97;;;844.90;1024.00;;;;;;5061415;28;20105;-72
2023/09/29 12:05:07;;;;;;;31.95;5.30;;;819.90;1024.00;;;;;;5070597;28;20024;-73